Time;durP1;ratioP1;P1;durP2;ratioP2;P2;SDS_P1;SDS_P2;PMS_P1;PMS_P2;Temp;Humidity;BMP_temperature;BMP_pressure;BME280_temperature;BME280_humidity;BME280_pressure;Samples;Min_cycle;Max_cycle;Signal;HPM_P1;HPM_P2
2024/01/02 00:00:32;;;;;;;26.60;16.50;;;;;;;10.34;98.03;99816.70;108255;1285;21986;-60
2024/01/02 00:02:57;;;;;;;25.30;16.00;;;;;;;10.39;97.89;99814.68;108098;1274;21989;-64
2024/01/02 00:05:23;;;;;;;26.80;17.80;;;;;;;10.46;97.83;99820.35;108112;1273;22028;-60
2024/01/02 00:07:49;;;;;;;30.90;17.60;;;;;;;10.50;97.81;99822.89;108314;1281;22057;-60
2024/01/02 00:10:15;;;;;;;22.40;16.70;;;;;;;10.54;97.49;99832.11;108108;1278;21987;-60
2024/01/02 00:12:40;;;;;;;27.40;18.10;;;;;;;10.58;97.45;99836.23;108124;1285;22080;-64
2024/01/02 00:15:07;;;;;;;28.80;18.60;;;;;;;10.63;97.47;99838.94;108121;1285;21984;-60
2024/01/02 00:17:33;;;;;;;25.90;17.60;;;;;;;10.64;97.18;99841.19;108318;1285;21987;-60
2024/01/02 00:19:58;;;;;;;25.70;16.80;;;;;;;10.66;97.24;99840.63;108276;1285;21984;-60
2024/01/02 00:22:26;;;;;;;24.30;16.40;;;;;;;10.68;97.04;99840.94;108345;1285;21989;-60
2024/01/02 00:24:51;;;;;;;28.70;17.70;;;;;;;10.70;96.82;99847.04;108056;1285;22024;-63
2024/01/02 00:27:17;;;;;;;25.40;17.60;;;;;;;10.74;96.92;99854.84;108081;1286;21995;-64
2024/01/02 00:29:42;;;;;;;25.40;17.50;;;;;;;10.78;96.92;99856.69;108115;1283;21985;-61
2024/01/02 00:32:08;;;;;;;26.00;16.40;;;;;;;10.81;96.72;99854.88;108137;1283;21991;-62
2024/01/02 00:34:34;;;;;;;27.90;16.90;;;;;;;10.84;96.67;99860.95;108258;1283;22001;-59
2024/01/02 00:37:00;;;;;;;30.50;18.10;;;;;;;10.89;96.42;99861.89;108155;1280;23716;-61
2024/01/02 00:39:25;;;;;;;27.50;18.40;;;;;;;10.90;96.14;99861.15;108308;1285;21990;-63
2024/01/02 00:41:51;;;;;;;27.10;18.00;;;;;;;10.89;95.68;99863.11;108275;1285;22099;-60
2024/01/02 00:44:16;;;;;;;27.80;17.30;;;;;;;10.86;95.22;99861.96;108064;1285;22262;-63
2024/01/02 00:46:42;;;;;;;28.80;18.40;;;;;;;10.83;95.16;99864.47;108135;1285;21985;-63
2024/01/02 00:49:07;;;;;;;28.90;18.30;;;;;;;10.81;94.92;99871.20;108077;1285;182500;-61
2024/01/02 00:51:33;;;;;;;28.10;17.60;;;;;;;10.78;94.73;99870.91;108188;1285;21985;-62
2024/01/02 00:53:59;;;;;;;25.70;17.40;;;;;;;10.75;94.44;99873.08;108288;1285;22451;-62
2024/01/02 00:56:25;;;;;;;31.10;19.00;;;;;;;10.72;94.43;99878.59;108087;1285;22535;-61
2024/01/02 00:58:51;;;;;;;30.50;19.00;;;;;;;10.71;94.39;99884.74;108093;1285;21999;-62
2024/01/02 01:01:19;;;;;;;27.30;18.00;;;;;;;10.69;94.47;99880.38;108111;1280;21997;-61
2024/01/02 01:03:45;;;;;;;27.50;17.60;;;;;;;10.67;94.25;99881.67;108157;1283;23641;-62
2024/01/02 01:06:10;;;;;;;27.30;16.90;;;;;;;10.65;93.98;99891.71;108175;1285;21984;-60
2024/01/02 01:08:36;;;;;;;27.10;16.90;;;;;;;10.63;94.06;99897.17;108019;1285;21981;-59
2024/01/02 01:11:01;;;;;;;26.00;16.60;;;;;;;10.62;94.02;99898.61;108179;1285;22516;-63
2024/01/02 01:13:27;;;;;;;24.90;16.10;;;;;;;10.61;94.13;99898.61;108185;1283;21996;-63
2024/01/02 01:15:53;;;;;;;24.10;15.80;;;;;;;10.60;94.00;99901.62;108222;1274;21989;-59
2024/01/02 01:18:18;;;;;;;27.60;18.10;;;;;;;10.58;94.01;99902.20;108258;1280;21991;-60
2024/01/02 01:20:44;;;;;;;27.00;16.20;;;;;;;10.56;94.03;99902.23;107339;1280;1002846;-59
2024/01/02 01:23:09;;;;;;;24.90;17.10;;;;;;;10.54;93.93;99900.87;108310;1285;21980;-63
2024/01/02 01:25:35;;;;;;;28.60;18.30;;;;;;;10.52;93.84;99900.22;108227;1283;21984;-62
2024/01/02 01:28:00;;;;;;;27.00;16.80;;;;;;;10.49;93.56;99899.56;108230;1285;22411;-59
2024/01/02 01:30:26;;;;;;;26.90;17.70;;;;;;;10.46;93.43;99899.63;108248;1285;22451;-63
2024/01/02 01:32:52;;;;;;;23.90;16.60;;;;;;;10.42;93.20;99897.94;108270;1285;21990;-63
2024/01/02 01:35:17;;;;;;;28.60;17.40;;;;;;;10.36;92.98;99896.81;108038;1285;21989;-63
2024/01/02 01:37:43;;;;;;;26.70;16.50;;;;;;;10.33;92.92;99897.92;108199;1275;22023;-59
2024/01/02 01:40:09;;;;;;;28.50;18.60;;;;;;;10.28;93.00;99901.34;108017;1285;21971;-63
2024/01/02 01:42:35;;;;;;;25.40;17.30;;;;;;;10.24;92.98;99908.77;108111;1274;21994;-63
2024/01/02 01:45:00;;;;;;;23.60;16.70;;;;;;;10.24;93.10;99908.06;108249;1285;21993;-63
2024/01/02 01:47:26;;;;;;;24.40;16.60;;;;;;;10.24;93.08;99907.91;107446;1280;1002402;-63
2024/01/02 01:49:51;;;;;;;27.20;16.30;;;;;;;10.23;93.04;99912.65;108250;1275;21979;-62
2024/01/02 01:52:17;;;;;;;26.50;17.50;;;;;;;10.21;92.93;99920.39;108179;1285;21983;-62
2024/01/02 01:54:42;;;;;;;28.60;18.00;;;;;;;10.17;92.72;99925.20;108137;1285;22032;-63
2024/01/02 01:57:09;;;;;;;27.30;16.90;;;;;;;10.11;92.42;99924.78;108016;1285;21986;-59
2024/01/02 01:59:34;;;;;;;28.30;17.30;;;;;;;10.04;92.38;99920.68;108112;1285;21981;-62
2024/01/02 02:02:00;;;;;;;25.90;17.20;;;;;;;10.00;92.35;99918.67;108254;1283;22027;-63
2024/01/02 02:04:26;;;;;;;26.10;17.10;;;;;;;9.96;92.30;99920.66;108167;1285;22023;-60
2024/01/02 02:06:52;;;;;;;27.50;17.30;;;;;;;9.90;92.33;99923.57;108275;1277;21983;-62
2024/01/02 02:09:18;;;;;;;26.70;16.40;;;;;;;9.87;92.51;99922.22;108320;1283;22169;-63
2024/01/02 02:11:44;;;;;;;28.90;17.70;;;;;;;9.84;92.43;99927.17;108341;1271;21994;-63
2024/01/02 02:14:10;;;;;;;27.60;18.60;;;;;;;9.80;92.21;99924.42;108242;1285;22026;-60
2024/01/02 02:16:36;;;;;;;24.90;17.20;;;;;;;9.77;92.18;99922.73;108316;1285;21974;-60
2024/01/02 02:19:02;;;;;;;25.20;16.80;;;;;;;9.75;92.15;99922.23;108323;1276;21990;-60
2024/01/02 02:21:27;;;;;;;25.90;17.30;;;;;;;9.71;92.10;99925.29;107503;1285;1002751;-63
2024/01/02 02:23:53;;;;;;;23.80;15.40;;;;;;;9.67;92.27;99930.59;108045;1285;22023;-59
2024/01/02 02:26:18;;;;;;;25.40;15.80;;;;;;;9.64;92.22;99931.52;108174;1285;22004;-62
2024/01/02 02:28:44;;;;;;;24.10;16.00;;;;;;;9.63;92.32;99929.44;108096;1274;22024;-60
2024/01/02 02:31:10;;;;;;;25.40;15.90;;;;;;;9.59;92.34;99929.31;108123;1272;21995;-63
2024/01/02 02:33:35;;;;;;;26.80;17.10;;;;;;;9.57;92.38;99927.07;108038;1285;21981;-63
2024/01/02 02:36:02;;;;;;;24.30;15.90;;;;;;;9.56;92.38;99921.66;108169;1285;21996;-63
2024/01/02 02:38:28;;;;;;;25.60;15.70;;;;;;;9.53;92.48;99917.48;108101;1285;22023;-60
2024/01/02 02:40:53;;;;;;;27.00;17.50;;;;;;;9.52;92.33;99916.80;108258;1285;22011;-63
2024/01/02 02:43:19;;;;;;;28.50;18.30;;;;;;;9.49;92.05;99912.81;108075;1285;21978;-60
2024/01/02 02:45:44;;;;;;;26.10;17.20;;;;;;;9.50;92.17;99910.71;108044;1285;21985;-60
2024/01/02 02:48:10;;;;;;;28.50;17.40;;;;;;;9.51;92.44;99907.70;108106;1285;21945;-60
2024/01/02 02:50:35;;;;;;;25.40;16.50;;;;;;;9.54;92.41;99908.55;108051;1281;21987;-60
2024/01/02 02:53:01;;;;;;;25.20;16.00;;;;;;;9.56;92.48;99906.24;108066;1285;22087;-63
2024/01/02 02:55:27;;;;;;;23.30;15.40;;;;;;;9.59;92.60;99902.52;108136;1285;22079;-63
2024/01/02 02:57:53;;;;;;;24.60;16.30;;;;;;;9.62;92.66;99904.75;108009;1272;22002;-59
2024/01/02 03:00:18;;;;;;;24.20;15.40;;;;;;;9.64;92.63;99904.70;108018;1284;24805;-62
2024/01/02 03:02:44;;;;;;;28.00;15.90;;;;;;;9.65;92.45;99907.86;108026;1276;21968;-63
2024/01/02 03:05:09;;;;;;;28.10;17.60;;;;;;;9.63;92.18;99909.98;108252;1285;22003;-60
2024/01/02 03:07:35;;;;;;;25.80;17.30;;;;;;;9.63;92.06;99912.27;108233;1272;22022;-62
2024/01/02 03:10:01;;;;;;;27.40;16.80;;;;;;;9.61;92.18;99914.92;108127;1285;22077;-59
2024/01/02 03:12:26;;;;;;;26.80;17.30;;;;;;;9.61;92.36;99911.42;108111;1285;21988;-62
2024/01/02 03:14:52;;;;;;;26.20;16.00;;;;;;;9.63;92.46;99911.73;108280;1285;22008;-63
2024/01/02 03:17:17;;;;;;;27.10;16.40;;;;;;;9.67;92.57;99917.46;108242;1284;21993;-63
2024/01/02 03:19:43;;;;;;;27.00;16.00;;;;;;;9.71;92.72;99917.40;108354;1280;21987;-63
2024/01/02 03:22:09;;;;;;;26.20;16.20;;;;;;;9.72;92.21;99919.85;108111;1285;21997;-63
2024/01/02 03:24:34;;;;;;;25.30;16.00;;;;;;;9.70;92.10;99926.02;108028;1285;22087;-60
2024/01/02 03:27:00;;;;;;;24.00;15.80;;;;;;;9.70;92.11;99927.77;105225;1273;1003304;-63
2024/01/02 03:29:28;;;;;;;22.40;14.80;;;;;;;9.71;92.18;99930.72;108196;1280;22005;-60
2024/01/02 03:31:54;;;;;;;26.20;16.00;;;;;;;9.71;92.05;99930.17;108025;1285;22005;-63
2024/01/02 03:34:19;;;;;;;23.90;15.60;;;;;;;9.71;91.90;99923.18;108209;1285;22015;-59
2024/01/02 03:36:47;;;;;;;23.40;15.80;;;;;;;9.67;91.34;99920.45;108337;1285;21988;-59
2024/01/02 03:39:12;;;;;;;26.20;17.40;;;;;;;9.60;90.96;99921.07;108262;1276;24323;-63
2024/01/02 03:41:38;;;;;;;28.30;16.10;;;;;;;9.53;91.03;99919.24;108041;1285;21971;-59
2024/01/02 03:44:04;;;;;;;22.60;15.10;;;;;;;9.49;91.12;99918.27;108048;1285;21983;-63
2024/01/02 03:46:29;;;;;;;28.70;17.90;;;;;;;9.47;91.15;99914.97;108030;1273;21981;-63
2024/01/02 03:48:55;;;;;;;23.80;15.50;;;;;;;9.44;91.04;99912.91;108064;1273;21993;-59
2024/01/02 03:51:21;;;;;;;24.10;15.90;;;;;;;9.39;90.76;99916.83;108110;1285;21973;-62
2024/01/02 03:53:46;;;;;;;26.90;17.20;;;;;;;9.35;90.80;99922.31;108210;1275;21991;-59
2024/01/02 03:56:12;;;;;;;26.80;16.70;;;;;;;9.30;90.58;99925.36;108035;1274;21984;-60
2024/01/02 03:58:39;;;;;;;31.40;18.70;;;;;;;9.24;90.41;99926.69;107999;1285;22023;-63
2024/01/02 04:01:05;;;;;;;25.60;15.80;;;;;;;9.17;90.42;99927.30;107989;1285;21993;-60
2024/01/02 04:03:30;;;;;;;26.70;15.50;;;;;;;9.14;90.54;99933.30;107990;1285;22802;-60
2024/01/02 04:05:56;;;;;;;22.90;15.50;;;;;;;9.12;90.68;99942.77;107987;1285;22001;-62
2024/01/02 04:08:21;;;;;;;26.00;16.50;;;;;;;9.11;90.98;99953.81;108196;1277;21982;-60
2024/01/02 04:10:47;;;;;;;22.50;15.90;;;;;;;9.11;90.85;99960.98;108143;1280;22168;-63
2024/01/02 04:13:12;;;;;;;23.50;14.90;;;;;;;9.09;90.75;99959.44;108026;1281;21984;-59
2024/01/02 04:15:38;;;;;;;25.50;16.60;;;;;;;9.07;90.62;99962.42;108067;1286;21996;-63
2024/01/02 04:18:04;;;;;;;25.40;16.30;;;;;;;9.07;90.96;99961.73;108100;1286;21983;-60
2024/01/02 04:20:30;;;;;;;24.50;15.50;;;;;;;9.09;91.14;99970.99;108038;1285;21996;-60
2024/01/02 04:22:56;;;;;;;24.30;15.80;;;;;;;9.11;91.22;99983.39;108019;1285;22021;-59
2024/01/02 04:25:22;;;;;;;27.30;16.30;;;;;;;9.12;91.53;99986.70;108062;1286;21992;-60
2024/01/02 04:27:51;;;;;;;25.90;15.80;;;;;;;9.14;91.48;99990.54;108093;1280;21974;-63
2024/01/02 04:30:17;;;;;;;23.30;14.70;;;;;;;9.18;91.65;99994.52;108029;1280;21983;-62
2024/01/02 04:32:42;;;;;;;28.30;16.70;;;;;;;9.21;91.56;99996.05;108004;1285;22073;-62
2024/01/02 04:35:08;;;;;;;24.80;16.60;;;;;;;9.21;91.63;99994.98;108089;1279;22462;-63
2024/01/02 04:37:33;;;;;;;25.40;16.20;;;;;;;9.22;91.63;99995.33;108197;1277;22057;-62
2024/01/02 04:40:04;;;;;;;28.20;17.20;;;;;;;9.26;91.43;99997.92;108179;1285;21983;-60
2024/01/02 04:42:35;;;;;;;26.40;16.70;;;;;;;9.28;91.42;99999.81;108000;1285;22001;-63
2024/01/02 04:45:04;;;;;;;24.10;16.00;;;;;;;9.29;91.37;100003.81;108042;1281;22000;-62
2024/01/02 04:47:33;;;;;;;24.50;15.80;;;;;;;9.29;91.12;100006.43;108192;1285;22159;-63
2024/01/02 04:50:00;;;;;;;26.80;15.90;;;;;;;9.30;90.93;100005.55;108251;1281;21974;-63
2024/01/02 04:52:29;;;;;;;27.20;16.20;;;;;;;9.30;91.10;100004.68;108276;1274;22004;-62
2024/01/02 04:54:55;;;;;;;25.80;16.40;;;;;;;9.29;90.93;100007.14;108185;1285;21986;-63
2024/01/02 04:57:21;;;;;;;27.10;16.40;;;;;;;9.27;90.76;100007.52;108047;1280;21994;-60
2024/01/02 04:59:48;;;;;;;27.20;16.10;;;;;;;9.25;90.72;100007.91;108058;1285;21991;-63
2024/01/02 05:02:14;;;;;;;24.40;15.20;;;;;;;9.24;90.69;100009.67;108260;1280;21994;-63
2024/01/02 05:04:40;;;;;;;26.10;16.10;;;;;;;9.23;90.59;100010.73;108088;1285;21999;-60
2024/01/02 05:07:06;;;;;;;25.50;16.30;;;;;;;9.21;90.73;100009.17;108059;1281;23099;-60
2024/01/02 05:09:32;;;;;;;23.50;14.50;;;;;;;9.23;90.89;100008.11;108076;1274;21988;-60
2024/01/02 05:11:57;;;;;;;23.80;15.70;;;;;;;9.25;90.90;100010.88;108267;1278;22031;-59
2024/01/02 05:14:23;;;;;;;22.20;14.80;;;;;;;9.24;91.25;100014.57;108260;1272;21983;-63
2024/01/02 05:16:49;;;;;;;27.10;17.10;;;;;;;9.30;91.39;100020.97;108316;1285;21996;-60
2024/01/02 05:19:15;;;;;;;23.00;15.20;;;;;;;9.34;91.37;100021.98;108125;1274;21993;-62
2024/01/02 05:21:40;;;;;;;21.80;13.90;;;;;;;9.37;91.21;100024.73;108064;1284;21993;-62
2024/01/02 05:24:06;;;;;;;22.00;14.00;;;;;;;9.40;91.32;100024.86;108136;1274;21984;-59
2024/01/02 05:26:32;;;;;;;20.90;13.90;;;;;;;9.44;91.34;100023.77;108341;1285;21986;-62
2024/01/02 05:28:57;;;;;;;21.50;13.80;;;;;;;9.46;91.34;100028.64;108154;1274;21984;-61
2024/01/02 05:31:23;;;;;;;25.30;14.80;;;;;;;9.47;91.42;100029.70;108109;1274;21979;-61
2024/01/02 05:33:49;;;;;;;22.40;13.70;;;;;;;9.49;91.38;100030.02;108013;1273;21980;-61
2024/01/02 05:36:14;;;;;;;22.70;14.00;;;;;;;9.52;91.59;100032.23;108050;1285;21996;-59
2024/01/02 05:38:40;;;;;;;27.10;15.30;;;;;;;9.57;91.64;100034.98;108039;1274;21980;-60
2024/01/02 05:41:06;;;;;;;21.50;13.30;;;;;;;9.61;91.61;100031.94;108064;1285;21983;-63
2024/01/02 05:43:32;;;;;;;22.70;13.60;;;;;;;9.64;91.40;100031.71;108092;1280;22020;-63
2024/01/02 05:46:00;;;;;;;24.60;14.90;;;;;;;9.66;91.47;100033.09;108097;1285;22021;-59
2024/01/02 05:48:26;;;;;;;18.20;13.20;;;;;;;9.66;91.31;100035.38;108131;1274;21995;-64
2024/01/02 05:50:51;;;;;;;21.20;12.60;;;;;;;9.66;91.11;100042.91;108094;1285;22003;-62
2024/01/02 05:53:17;;;;;;;21.80;13.90;;;;;;;9.67;91.20;100050.42;108012;1285;21977;-61
2024/01/02 05:55:43;;;;;;;22.40;13.80;;;;;;;9.67;91.05;100054.98;108047;1285;22446;-60
2024/01/02 05:58:08;;;;;;;19.30;12.70;;;;;;;9.66;90.75;100054.30;108022;1280;21983;-60
2024/01/02 06:00:34;;;;;;;19.90;12.70;;;;;;;9.63;90.71;100049.95;108074;1285;22454;-60
2024/01/02 06:03:00;;;;;;;20.40;12.70;;;;;;;9.61;90.58;100053.49;108108;1280;22091;-59
2024/01/02 06:05:26;;;;;;;19.60;12.00;;;;;;;9.62;90.63;100054.01;108068;1274;21988;-61
2024/01/02 06:07:51;;;;;;;17.70;11.60;;;;;;;9.63;90.70;100054.52;108044;1285;21988;-60
2024/01/02 06:10:17;;;;;;;16.60;10.70;;;;;;;9.63;90.69;100054.33;108131;1285;21998;-62
2024/01/02 06:12:42;;;;;;;15.60;10.70;;;;;;;9.63;90.60;100058.20;108088;1286;21978;-61
2024/01/02 06:15:08;;;;;;;15.60;10.10;;;;;;;9.63;90.63;100056.44;108218;1280;21976;-60
2024/01/02 06:17:34;;;;;;;15.70;10.40;;;;;;;9.63;90.73;100059.77;108180;1278;22026;-62
2024/01/02 06:20:00;;;;;;;16.90;10.70;;;;;;;9.64;90.65;100062.21;108093;1285;22001;-62
2024/01/02 06:22:25;;;;;;;17.30;10.20;;;;;;;9.64;90.74;100065.19;108081;1285;22018;-63
2024/01/02 06:24:51;;;;;;;16.00;10.50;;;;;;;9.66;90.66;100067.44;108049;1285;22021;-60
2024/01/02 06:27:16;;;;;;;17.70;10.80;;;;;;;9.64;90.42;100068.86;108078;1285;21996;-61
2024/01/02 06:29:42;;;;;;;16.60;10.30;;;;;;;9.63;90.41;100074.66;108029;1283;21986;-62
2024/01/02 06:32:07;;;;;;;14.10;9.50;;;;;;;9.62;90.43;100072.05;108041;1285;21995;-61
2024/01/02 06:34:33;;;;;;;16.20;10.00;;;;;;;9.63;90.42;100070.80;108055;1277;21981;-60
2024/01/02 06:36:58;;;;;;;15.90;10.00;;;;;;;9.64;90.55;100070.27;108099;1280;21983;-62
2024/01/02 06:39:24;;;;;;;13.60;9.60;;;;;;;9.66;90.72;100071.81;108186;1283;21974;-62
2024/01/02 06:41:49;;;;;;;17.00;10.50;;;;;;;9.67;90.93;100073.03;108118;1284;21983;-62
2024/01/02 06:44:15;;;;;;;18.20;11.50;;;;;;;9.72;91.15;100074.71;108060;1285;22023;-62
2024/01/02 06:46:41;;;;;;;20.20;11.70;;;;;;;9.74;91.24;100078.70;108065;1285;23030;-62
2024/01/02 06:49:08;;;;;;;16.80;10.60;;;;;;;9.79;91.20;100074.27;108151;1286;21993;-62
2024/01/02 06:51:34;;;;;;;18.10;11.10;;;;;;;9.81;91.23;100073.36;108273;1285;21989;-59
2024/01/02 06:54:00;;;;;;;19.70;11.20;;;;;;;9.86;91.30;100077.33;108207;1285;21994;-60
2024/01/02 06:56:26;;;;;;;16.10;10.30;;;;;;;9.89;91.14;100083.77;108119;1285;21989;-62
2024/01/02 06:58:51;;;;;;;17.20;11.20;;;;;;;9.90;91.12;100082.70;108066;1285;21986;-63
2024/01/02 07:01:17;;;;;;;20.20;10.90;;;;;;;9.93;91.08;100083.19;108114;1286;21984;-62
2024/01/02 07:03:47;;;;;;;17.10;10.80;;;;;;;9.96;91.13;100084.71;108238;1277;21997;-63
2024/01/02 07:06:12;;;;;;;17.30;10.00;;;;;;;9.98;91.24;100083.63;108152;1286;21988;-60
2024/01/02 07:08:38;;;;;;;16.80;10.30;;;;;;;10.01;91.30;100079.56;108146;1286;21985;-63
2024/01/02 07:11:04;;;;;;;18.50;11.00;;;;;;;10.06;91.47;100084.41;108283;1274;21993;-62
2024/01/02 07:13:29;;;;;;;14.30;9.60;;;;;;;10.08;91.59;100083.48;108258;1280;21987;-63
2024/01/02 07:15:56;;;;;;;15.10;9.60;;;;;;;10.10;91.64;100080.65;108313;1286;21988;-62
2024/01/02 07:18:23;;;;;;;15.30;10.00;;;;;;;10.14;91.65;100086.55;108310;1277;21986;-63
2024/01/02 07:20:49;;;;;;;17.10;10.10;;;;;;;10.17;91.84;100090.52;108282;1273;21986;-60
2024/01/02 07:23:15;;;;;;;16.80;10.50;;;;;;;10.19;92.09;100095.94;108292;1286;21987;-62
2024/01/02 07:25:41;;;;;;;16.10;10.20;;;;;;;10.18;92.36;100098.77;108296;1274;22457;-62
2024/01/02 07:28:06;;;;;;;15.50;9.40;;;;;;;10.19;92.68;100101.04;108165;1279;21978;-63
2024/01/02 07:30:32;;;;;;;14.80;9.20;;;;;;;10.24;92.64;100104.98;108171;1283;21996;-61
2024/01/02 07:32:58;;;;;;;17.20;9.90;;;;;;;10.32;92.83;100105.59;108233;1286;22000;-63
2024/01/02 07:35:23;;;;;;;14.50;9.20;;;;;;;10.42;92.61;100108.77;108128;1277;21988;-61
2024/01/02 07:37:49;;;;;;;12.70;8.30;;;;;;;10.53;92.54;100107.55;108133;1286;21984;-61
2024/01/02 07:40:15;;;;;;;12.10;7.80;;;;;;;10.63;92.42;100105.80;108131;1280;21984;-61
2024/01/02 07:42:41;;;;;;;13.10;8.90;;;;;;;10.72;92.21;100106.02;108259;1281;22024;-60
2024/01/02 07:45:08;;;;;;;11.90;8.00;;;;;;;10.82;92.22;100105.66;108167;1274;22026;-63
2024/01/02 07:47:34;;;;;;;13.40;8.60;;;;;;;10.84;92.27;100107.54;108084;1285;21994;-60
2024/01/02 07:50:00;;;;;;;13.60;8.90;;;;;;;10.93;92.57;100109.49;108095;1274;21983;-60
2024/01/02 07:52:25;;;;;;;14.20;9.40;;;;;;;11.04;92.71;100107.20;108080;1286;23651;-61
2024/01/02 07:54:51;;;;;;;15.40;9.70;;;;;;;11.09;92.87;100113.08;108070;1276;21996;-60
2024/01/02 07:57:17;;;;;;;15.30;9.50;;;;;;;11.15;92.58;100115.59;108081;1276;21993;-63
2024/01/02 07:59:42;;;;;;;16.40;10.30;;;;;;;11.20;92.52;100120.79;108155;1286;21984;-63
2024/01/02 08:02:08;;;;;;;14.90;9.80;;;;;;;11.29;92.87;100122.71;108103;1286;21986;-61
2024/01/02 08:04:33;;;;;;;16.40;9.90;;;;;;;11.36;92.94;100121.34;108043;1280;23612;-60
2024/01/02 08:07:01;;;;;;;13.80;9.70;;;;;;;11.44;92.86;100120.83;108236;1276;22015;-60
2024/01/02 08:09:27;;;;;;;16.20;9.90;;;;;;;11.53;92.77;100126.63;108051;1280;21985;-62
2024/01/02 08:11:53;;;;;;;15.50;9.50;;;;;;;11.65;92.50;100123.60;108147;1285;21983;-62
2024/01/02 08:14:18;;;;;;;16.50;10.90;;;;;;;11.72;91.65;100124.84;108309;1285;22160;-62
2024/01/02 08:16:44;;;;;;;14.10;9.80;;;;;;;11.82;91.64;100127.08;108274;1284;21973;-61
2024/01/02 08:19:09;;;;;;;15.60;9.90;;;;;;;11.88;90.94;100125.73;108084;1286;21995;-61
2024/01/02 08:21:35;;;;;;;17.40;10.40;;;;;;;11.96;90.97;100125.55;108090;1286;22004;-63
2024/01/02 08:24:01;;;;;;;17.80;10.10;;;;;;;12.01;90.63;100126.87;108090;1279;21986;-63
2024/01/02 08:26:26;;;;;;;13.60;9.70;;;;;;;12.06;90.60;100127.13;108198;1281;21996;-62
2024/01/02 08:28:53;;;;;;;15.80;10.70;;;;;;;12.12;90.80;100124.17;108081;1283;21983;-62
2024/01/02 08:31:19;;;;;;;15.20;10.00;;;;;;;12.16;89.88;100125.84;108135;1286;21983;-62
2024/01/02 08:33:44;;;;;;;15.60;10.00;;;;;;;12.17;89.36;100128.98;108076;1284;22018;-60
2024/01/02 08:36:11;;;;;;;14.90;10.00;;;;;;;12.17;88.92;100125.83;108127;1286;22021;-61
2024/01/02 08:38:37;;;;;;;17.80;11.00;;;;;;;12.25;89.29;100124.95;108086;1286;21984;-62
2024/01/02 08:41:03;;;;;;;47.80;31.00;;;;;;;12.27;88.80;100122.95;108178;1285;21993;-63
2024/01/02 08:43:29;;;;;;;43.20;26.90;;;;;;;12.29;88.58;100118.16;108069;1286;22090;-64
2024/01/02 08:45:55;;;;;;;34.00;19.80;;;;;;;12.34;88.53;100115.06;108126;1286;21986;-63
2024/01/02 08:48:21;;;;;;;24.80;17.40;;;;;;;12.37;87.94;100119.04;108106;1280;21986;-63
2024/01/02 08:50:46;;;;;;;41.10;27.90;;;;;;;12.41;87.78;100119.27;108123;1282;21987;-60
2024/01/02 08:53:12;;;;;;;40.10;26.10;;;;;;;12.38;86.61;100118.64;108191;1277;21994;-62
2024/01/02 08:55:38;;;;;;;26.60;18.70;;;;;;;12.41;86.36;100120.86;108056;1280;21994;-61
2024/01/02 08:58:04;;;;;;;25.10;16.30;;;;;;;12.45;87.06;100114.08;108124;1284;22057;-60
2024/01/02 09:00:30;;;;;;;27.90;19.00;;;;;;;12.48;86.78;100110.14;108030;1285;22001;-62
2024/01/02 09:02:57;;;;;;;25.70;17.80;;;;;;;12.50;86.49;100112.38;108091;1280;22002;-59
2024/01/02 09:05:23;;;;;;;16.90;11.80;;;;;;;12.53;86.82;100111.08;108019;1284;22024;-60
2024/01/02 09:07:49;;;;;;;18.00;11.60;;;;;;;12.56;86.70;100110.30;108057;1285;22021;-62
2024/01/02 09:10:14;;;;;;;21.00;14.70;;;;;;;12.59;86.22;100106.87;108072;1282;21987;-62
2024/01/02 09:12:40;;;;;;;20.00;12.70;;;;;;;12.61;86.16;100103.83;108176;1274;21980;-60
2024/01/02 09:15:08;;;;;;;13.10;8.80;;;;;;;12.64;86.20;100106.38;108219;1286;23073;-61
2024/01/02 09:17:34;;;;;;;20.70;13.00;;;;;;;12.65;85.44;100105.84;108335;1279;21991;-60
2024/01/02 09:20:03;;;;;;;25.90;15.90;;;;;;;12.66;84.68;100103.01;108150;1283;23178;-61
2024/01/02 09:22:29;;;;;;;15.50;9.80;;;;;;;12.69;85.15;100105.41;108401;1286;23041;-59
2024/01/02 09:24:55;;;;;;;18.60;10.20;;;;;;;12.72;85.33;100105.67;108193;1286;22833;-61
2024/01/02 09:27:21;;;;;;;13.40;8.70;;;;;;;12.75;85.26;100102.79;108004;1286;21989;-59
2024/01/02 09:29:47;;;;;;;18.60;11.00;;;;;;;12.76;84.48;100101.88;108042;1286;22048;-59
2024/01/02 09:32:12;;;;;;;21.50;11.90;;;;;;;12.79;84.27;100104.63;108096;1286;22027;-62
2024/01/02 09:34:38;;;;;;;21.40;12.50;;;;;;;12.83;84.50;100097.65;108132;1286;21980;-61
2024/01/02 09:37:04;;;;;;;28.60;13.80;;;;;;;12.85;84.08;100096.17;108097;1286;21985;-60
2024/01/02 09:39:30;;;;;;;17.30;8.60;;;;;;;12.90;84.57;100096.40;108094;1277;21981;-62
2024/01/02 09:42:13;;;;;;;18.90;11.30;;;;;;;12.94;84.71;100094.17;108110;1283;22951;-60
2024/01/02 09:44:57;;;;;;;15.90;8.60;;;;;;;12.98;84.65;100093.56;108265;1284;21986;-60
2024/01/02 09:47:44;;;;;;;12.90;9.10;;;;;;;12.99;82.91;100093.18;108046;1285;21973;-62
2024/01/02 09:50:14;;;;;;;16.30;6.90;;;;;;;13.03;82.28;100092.19;108042;1284;22078;-59
2024/01/02 09:52:45;;;;;;;13.40;7.40;;;;;;;13.07;81.80;100085.74;108047;1281;22029;-59
2024/01/02 09:55:21;;;;;;;11.60;6.30;;;;;;;13.08;81.03;100087.63;108246;1274;22024;-59
2024/01/02 09:57:49;;;;;;;9.30;6.80;;;;;;;13.13;80.94;100085.23;108117;1285;21986;-61
2024/01/02 10:00:36;;;;;;;14.30;6.40;;;;;;;13.19;81.00;100086.45;108092;1280;21986;-62
2024/01/02 10:03:02;;;;;;;10.70;6.30;;;;;;;13.23;80.74;100082.66;108089;1273;21983;-61
2024/01/02 10:05:39;;;;;;;14.30;7.40;;;;;;;13.27;81.09;100083.08;108098;1285;21983;-62
2024/01/02 10:08:25;;;;;;;14.40;7.20;;;;;;;13.31;80.47;100082.78;108109;1285;21988;-61
2024/01/02 10:11:03;;;;;;;15.60;7.00;;;;;;;13.33;80.25;100076.20;108079;1285;21991;-61
2024/01/02 10:13:48;;;;;;;13.40;6.40;;;;;;;13.39;79.76;100080.63;108165;1285;21988;-61
2024/01/02 10:16:34;;;;;;;24.80;10.10;;;;;;;13.43;79.11;100072.25;108116;1280;22889;-59
2024/01/02 10:19:06;;;;;;;21.20;10.80;;;;;;;13.49;79.69;100066.78;108068;1274;21994;-59
2024/01/02 10:21:39;;;;;;;11.70;6.50;;;;;;;13.53;78.60;100061.56;108119;1285;21995;-60
2024/01/02 10:24:19;;;;;;;26.40;14.40;;;;;;;13.58;78.31;100057.91;108071;1285;21986;-59
2024/01/02 10:27:15;;;;;;;13.70;5.70;;;;;;;13.62;78.18;100052.52;108074;1285;21985;-61
2024/01/02 10:30:08;;;;;;;11.60;5.70;;;;;;;13.68;78.53;100046.84;108144;1285;22021;-61
2024/01/02 10:32:54;;;;;;;9.00;4.20;;;;;;;13.72;76.66;100042.48;108065;1285;21985;-61
2024/01/02 10:35:38;;;;;;;10.50;4.80;;;;;;;13.78;77.17;100035.45;108147;1285;21992;-59
2024/01/02 10:38:28;;;;;;;8.20;3.90;;;;;;;13.81;76.27;100035.33;108138;1285;21980;-61
2024/01/02 10:41:01;;;;;;;9.80;4.40;;;;;;;13.81;74.63;100030.04;108031;1285;21988;-59
2024/01/02 10:43:28;;;;;;;7.80;4.40;;;;;;;13.78;74.17;100026.08;108138;1285;21986;-59
2024/01/02 10:46:08;;;;;;;6.20;3.30;;;;;;;13.85;75.70;100017.58;108107;1281;21991;-62
2024/01/02 10:48:56;;;;;;;6.10;3.60;;;;;;;13.89;75.11;100022.23;108070;1274;21986;-60
2024/01/02 10:51:31;;;;;;;4.50;3.10;;;;;;;13.91;75.08;100015.11;108040;1274;22043;-60
2024/01/02 10:54:07;;;;;;;8.10;4.90;;;;;;;13.90;72.82;100013.73;108280;1285;22025;-59
2024/01/02 10:56:41;;;;;;;15.00;7.60;;;;;;;13.92;72.61;100009.95;108174;1280;21987;-60
2024/01/02 10:59:28;;;;;;;179.70;105.90;;;;;;;13.95;73.50;100008.80;108089;1285;22223;-60
2024/01/02 11:02:27;;;;;;;193.90;94.50;;;;;;;13.98;73.08;100007.81;108113;1285;21987;-60
2024/01/02 11:05:14;;;;;;;528.00;310.80;;;;;;;13.93;69.25;100003.41;107991;1285;21993;-62
2024/01/02 11:07:41;;;;;;;1496.00;722.80;;;;;;;13.92;69.41;100002.55;108119;1284;23052;-60
2024/01/02 11:10:19;;;;;;;1038.70;600.80;;;;;;;13.96;70.99;99997.30;108121;1285;21994;-62